createdAt,value
2023-01-04T00:01:26.554Z,25.33
2023-01-04T00:03:54.183Z,26.48
2023-01-04T00:06:24.262Z,26.75
2023-01-04T00:08:54.487Z,26.42
2023-01-04T00:11:23.390Z,28.05
2023-01-04T00:13:53.163Z,26.25
2023-01-04T00:16:23.897Z,29.35
2023-01-04T00:18:53.102Z,29.05
2023-01-04T00:21:23.327Z,27.92
2023-01-04T00:23:52.897Z,28.25
2023-01-04T00:26:27.679Z,26.48
2023-01-04T00:29:03.423Z,26.80
2023-01-04T00:31:31.610Z,26.70
2023-01-04T00:34:01.594Z,26.48
2023-01-04T00:36:29.933Z,26.13
2023-01-04T00:39:09.209Z,26.92
2023-01-04T00:41:58.777Z,26.80
2023-01-04T00:44:28.284Z,27.02
2023-01-04T00:46:59.313Z,27.77
2023-01-04T00:49:28.480Z,27.23
2023-01-04T00:51:55.657Z,26.83
2023-01-04T00:54:23.528Z,27.35
2023-01-04T00:56:50.765Z,25.88
2023-01-04T00:59:19.955Z,27.10
2023-01-04T01:01:47.942Z,27.25
2023-01-04T01:04:18.427Z,27.33
2023-01-04T01:06:46.539Z,27.05
2023-01-04T01:09:14.129Z,26.73
2023-01-04T01:11:41.778Z,26.92
2023-01-04T01:14:15.847Z,26.13
2023-01-04T01:16:58.918Z,25.55
2023-01-04T01:19:30.469Z,25.52
2023-01-04T01:21:58.405Z,26.45
2023-01-04T01:24:26.914Z,27.58
2023-01-04T01:26:54.840Z,26.65
2023-01-04T01:29:23.008Z,26.83
2023-01-04T01:31:50.237Z,26.35
2023-01-04T01:34:17.750Z,27.42
2023-01-04T01:36:47.247Z,28.02
2023-01-04T01:39:14.599Z,29.60
2023-01-04T01:41:42.126Z,28.42
2023-01-04T01:44:44.196Z,27.60
2023-01-04T01:47:21.206Z,27.88
2023-01-04T01:49:51.797Z,27.35
2023-01-04T01:52:23.248Z,28.60
2023-01-04T01:55:01.037Z,28.63
2023-01-04T01:57:32.121Z,29.20
2023-01-04T02:00:04.887Z,30.13
2023-01-04T02:02:50.455Z,31.08
2023-01-04T02:05:20.475Z,30.80
2023-01-04T02:07:49.379Z,32.30
2023-01-04T02:10:17.606Z,33.20
2023-01-04T02:12:46.381Z,34.05
2023-01-04T02:15:14.018Z,39.17
2023-01-04T02:17:47.005Z,37.60
2023-01-04T02:20:38.532Z,38.22
2023-01-04T02:23:30.135Z,37.15
2023-01-04T02:26:45.784Z,39.45
2023-01-04T02:29:38.938Z,38.58
2023-01-04T02:32:41.526Z,40.03
2023-01-04T02:35:33.760Z,39.10
2023-01-04T02:38:01.020Z,39.38
2023-01-04T02:40:54.268Z,40.90
2023-01-04T02:44:01.480Z,39.03
2023-01-04T02:46:39.109Z,36.35
2023-01-04T02:49:24.924Z,37.70
2023-01-04T02:51:51.953Z,37.00
2023-01-04T02:54:25.184Z,39.20
2023-01-04T02:57:16.850Z,39.55
2023-01-04T02:59:59.558Z,36.35
2023-01-04T03:02:54.173Z,38.05
2023-01-04T03:05:51.266Z,36.78
2023-01-04T03:08:30.528Z,36.35
2023-01-04T03:11:33.844Z,38.25
2023-01-04T03:14:33.284Z,39.38
2023-01-04T03:17:04.045Z,37.08
2023-01-04T03:19:51.088Z,36.45
2023-01-04T03:22:55.263Z,37.58
2023-01-04T03:25:46.741Z,37.50
2023-01-04T03:28:38.807Z,38.97
2023-01-04T03:31:45.817Z,39.28
2023-01-04T03:34:32.503Z,37.65
2023-01-04T03:40:03.207Z,34.72
2023-01-04T03:45:51.551Z,34.40
2023-01-04T03:48:33.648Z,34.55
2023-01-04T03:51:14.930Z,34.15
2023-01-04T03:53:53.230Z,35.70
2023-01-04T03:56:23.368Z,35.33
2023-01-04T03:58:51.611Z,33.45
2023-01-04T04:01:20.690Z,35.40
2023-01-04T04:04:06.474Z,35.40
2023-01-04T04:09:19.365Z,32.65
2023-01-04T04:11:46.799Z,32.38
2023-01-04T04:14:13.832Z,33.92
2023-01-04T04:16:41.788Z,31.38
2023-01-04T04:19:09.376Z,36.47
2023-01-04T04:21:37.464Z,32.22
2023-01-04T04:24:05.285Z,32.17
2023-01-04T04:26:32.838Z,34.08
2023-01-04T04:28:59.950Z,30.67
2023-01-04T04:31:27.594Z,30.52
2023-01-04T04:33:54.713Z,31.38
2023-01-04T04:36:22.023Z,30.83
2023-01-04T04:38:49.109Z,30.88
2023-01-04T04:41:34.968Z,31.15
2023-01-04T04:44:04.294Z,28.95
2023-01-04T04:46:31.997Z,29.98
2023-01-04T04:48:59.098Z,29.92
2023-01-04T04:51:26.663Z,29.45
2023-01-04T04:53:53.712Z,29.23
2023-01-04T04:56:21.318Z,28.95
2023-01-04T04:58:49.657Z,30.35
2023-01-04T05:01:17.939Z,31.45
2023-01-04T05:03:45.226Z,28.67
2023-01-04T05:06:13.229Z,28.25
2023-01-04T05:08:40.681Z,30.90
2023-01-04T05:11:11.314Z,27.55
2023-01-04T05:13:38.776Z,28.55
2023-01-04T05:16:08.330Z,29.50
2023-01-04T05:18:38.372Z,29.98
2023-01-04T05:21:05.876Z,27.77
2023-01-04T05:23:33.090Z,31.17
2023-01-04T05:26:04.910Z,34.45
2023-01-04T05:28:32.010Z,29.38
2023-01-04T05:30:59.313Z,33.92
2023-01-04T05:33:31.755Z,28.80
2023-01-04T05:36:01.588Z,26.05
2023-01-04T05:38:29.378Z,30.23
2023-01-04T05:40:57.501Z,26.55
2023-01-04T05:43:26.915Z,27.40
2023-01-04T05:45:56.939Z,29.75
2023-01-04T05:48:24.976Z,32.45
2023-01-04T05:50:53.654Z,31.13
2023-01-04T05:53:20.803Z,32.53
2023-01-04T05:55:49.048Z,28.80
2023-01-04T05:58:18.757Z,33.45
2023-01-04T06:00:46.225Z,30.23
2023-01-04T06:03:13.293Z,33.80
2023-01-04T06:05:41.403Z,30.73
2023-01-04T06:08:08.399Z,30.58
2023-01-04T06:10:40.405Z,32.63
2023-01-04T06:13:09.816Z,33.00
2023-01-04T06:15:41.238Z,30.25
2023-01-04T06:18:14.143Z,28.45
2023-01-04T06:20:44.287Z,30.33
2023-01-04T06:23:11.459Z,26.23
2023-01-04T06:25:38.866Z,27.75
2023-01-04T06:28:05.947Z,26.05
2023-01-04T06:30:35.597Z,29.30
2023-01-04T06:33:02.816Z,32.20
2023-01-04T06:35:30.559Z,33.47
2023-01-04T06:37:57.742Z,33.53
2023-01-04T06:40:25.081Z,31.35
2023-01-04T06:42:52.230Z,37.17
2023-01-04T06:45:19.704Z,30.73
2023-01-04T06:47:48.192Z,30.13
2023-01-04T06:50:16.283Z,29.60
2023-01-04T06:52:46.478Z,29.98
2023-01-04T06:55:14.168Z,30.13
2023-01-04T06:57:41.295Z,27.55
2023-01-04T07:00:09.983Z,29.90
2023-01-04T07:02:37.677Z,30.52
2023-01-04T07:05:06.286Z,31.67
2023-01-04T07:07:34.323Z,28.95
2023-01-04T07:10:07.212Z,32.92
2023-01-04T07:12:40.440Z,27.25
2023-01-04T07:15:38.517Z,24.58
2023-01-04T07:17:55.381Z,25.10
2023-01-04T07:20:23.023Z,24.10
2023-01-04T07:22:50.119Z,23.90
2023-01-04T07:25:17.674Z,25.45
2023-01-04T07:27:44.933Z,27.27
2023-01-04T07:30:14.749Z,26.65
2023-01-04T07:32:41.946Z,25.77
2023-01-04T07:35:09.521Z,30.80
2023-01-04T07:37:36.520Z,27.77
2023-01-04T07:40:04.309Z,26.58
2023-01-04T07:42:31.587Z,26.30
2023-01-04T07:44:59.014Z,28.55
2023-01-04T07:47:27.951Z,31.45
2023-01-04T07:49:55.413Z,29.10
2023-01-04T07:52:22.945Z,30.30
2023-01-04T07:54:50.298Z,27.92
2023-01-04T07:57:18.991Z,26.35
2023-01-04T07:59:46.582Z,26.15
2023-01-04T08:02:13.952Z,29.10
2023-01-04T08:04:43.780Z,26.35
2023-01-04T08:07:11.025Z,24.20
2023-01-04T08:09:38.508Z,27.05
2023-01-04T08:12:05.714Z,27.95
2023-01-04T08:14:33.066Z,29.25
2023-01-04T08:17:00.052Z,25.67
2023-01-04T08:19:27.615Z,27.27
2023-01-04T08:21:55.072Z,30.63
2023-01-04T08:24:22.545Z,27.92
2023-01-04T08:26:49.643Z,28.15
2023-01-04T08:29:17.068Z,30.30
2023-01-04T08:31:44.216Z,28.38
2023-01-04T08:34:11.772Z,30.67
2023-01-04T08:36:48.178Z,29.13
2023-01-04T08:39:15.599Z,27.88
2023-01-04T08:42:06.100Z,25.40
2023-01-04T08:44:38.629Z,25.70
2023-01-04T08:47:06.081Z,26.10
2023-01-04T08:49:35.897Z,25.05
2023-01-04T08:52:09.311Z,24.45
2023-01-04T08:54:36.922Z,24.00
2023-01-04T08:57:04.387Z,23.38
2023-01-04T08:59:32.024Z,24.48
2023-01-04T09:02:05.587Z,23.40
2023-01-04T09:04:33.798Z,24.27
2023-01-04T09:07:00.988Z,24.08
2023-01-04T09:09:30.505Z,22.45
2023-01-04T09:11:59.828Z,20.80
2023-01-04T09:14:27.268Z,22.90
2023-01-04T09:16:54.325Z,22.33
2023-01-04T09:19:22.349Z,21.38
2023-01-04T09:21:50.183Z,21.23
2023-01-04T09:24:17.705Z,22.23
2023-01-04T09:26:47.646Z,20.63
2023-01-04T09:29:15.066Z,21.90
2023-01-04T09:31:42.312Z,22.58
2023-01-04T09:34:14.833Z,22.35
2023-01-04T09:36:43.013Z,21.00
2023-01-04T09:39:16.703Z,20.73
2023-01-04T09:42:04.283Z,20.83
2023-01-04T09:47:41.359Z,19.02
2023-01-04T09:50:29.734Z,18.93
2023-01-04T09:53:02.568Z,16.88
2023-01-04T09:55:43.629Z,18.48
2023-01-04T09:58:48.134Z,16.58
2023-01-04T10:01:21.776Z,17.85
2023-01-04T10:04:23.805Z,17.52
2023-01-04T10:06:53.046Z,17.55
2023-01-04T10:09:22.557Z,17.63
2023-01-04T10:12:10.093Z,18.15
2023-01-04T10:14:44.490Z,16.65
2023-01-04T10:17:37.823Z,16.40
2023-01-04T10:23:17.149Z,16.52
2023-01-04T10:25:53.859Z,15.80
2023-01-04T10:28:37.946Z,15.80
2023-01-04T10:31:38.578Z,15.57
2023-01-04T10:34:29.724Z,16.85
2023-01-04T10:36:59.701Z,16.33
2023-01-04T10:39:33.462Z,16.00
2023-01-04T10:42:08.078Z,16.38
2023-01-04T10:44:55.961Z,14.35
2023-01-04T10:47:47.792Z,14.70
2023-01-04T10:50:25.091Z,13.77
2023-01-04T10:53:12.513Z,13.95
2023-01-04T10:56:23.878Z,13.93
2023-01-04T10:58:49.852Z,13.38
2023-01-04T11:02:06.941Z,13.43
2023-01-04T11:04:40.117Z,13.85
2023-01-04T11:07:19.294Z,13.90
2023-01-04T11:10:01.698Z,15.07
2023-01-04T11:12:29.177Z,15.43
2023-01-04T11:14:56.385Z,13.30
2023-01-04T11:17:25.212Z,15.23
2023-01-04T11:19:53.588Z,14.38
2023-01-04T11:22:26.186Z,14.38
2023-01-04T11:25:33.841Z,13.57
2023-01-04T11:27:56.725Z,13.55
2023-01-04T11:30:38.660Z,14.80
2023-01-04T11:33:14.871Z,15.50
2023-01-04T11:38:26.185Z,15.88
2023-01-04T11:41:05.783Z,14.93
2023-01-04T11:43:35.633Z,15.80
2023-01-04T11:46:17.803Z,15.35
2023-01-04T11:48:46.862Z,14.65
2023-01-04T11:51:36.897Z,13.85
2023-01-04T11:54:14.796Z,14.75
2023-01-04T11:56:58.255Z,14.80
2023-01-04T11:59:25.972Z,15.23
2023-01-04T12:02:50.496Z,15.65
2023-01-04T12:05:29.055Z,14.90
2023-01-04T12:07:59.833Z,15.25
2023-01-04T12:10:28.268Z,15.77
2023-01-04T12:12:57.425Z,15.05
2023-01-04T12:15:40.314Z,15.00
2023-01-04T12:18:41.896Z,14.80
2023-01-04T12:21:26.826Z,17.20
2023-01-04T12:23:55.581Z,16.13
2023-01-04T12:26:23.666Z,14.82
2023-01-04T12:29:12.842Z,15.95
2023-01-04T12:31:41.247Z,16.30
2023-01-04T12:34:24.150Z,16.25
2023-01-04T12:37:04.756Z,16.52
2023-01-04T12:39:44.808Z,15.68
2023-01-04T12:42:18.899Z,17.33
2023-01-04T12:44:47.019Z,16.40
2023-01-04T12:47:39.369Z,16.33
2023-01-04T12:50:08.805Z,16.65
2023-01-04T12:53:10.135Z,15.82
2023-01-04T12:55:32.722Z,15.75
2023-01-04T12:58:58.039Z,16.35
2023-01-04T13:01:28.483Z,16.88
2023-01-04T13:04:05.022Z,17.48
2023-01-04T13:06:42.799Z,18.88
2023-01-04T13:09:24.817Z,18.63
2023-01-04T13:12:09.451Z,17.88
2023-01-04T13:14:43.660Z,18.08
2023-01-04T13:17:22.883Z,18.45
2023-01-04T13:19:50.808Z,18.92
2023-01-04T13:22:28.326Z,19.13
2023-01-04T13:25:03.019Z,18.40
2023-01-04T13:27:30.320Z,18.23
2023-01-04T13:29:57.809Z,21.35
2023-01-04T13:32:27.910Z,19.52
2023-01-04T13:35:06.825Z,19.25
2023-01-04T13:37:46.354Z,21.17
2023-01-04T13:40:23.694Z,18.48
2023-01-04T13:43:13.431Z,19.23
2023-01-04T13:46:16.732Z,17.80
2023-01-04T13:48:47.919Z,19.70
2023-01-04T13:51:26.097Z,19.40
2023-01-04T13:54:00.068Z,17.80
2023-01-04T13:56:29.566Z,19.55
2023-01-04T13:58:56.836Z,21.88
2023-01-04T14:01:34.148Z,19.95
2023-01-04T14:04:25.237Z,19.98
2023-01-04T14:06:55.646Z,20.90
2023-01-04T14:09:27.429Z,22.10
2023-01-04T14:12:07.399Z,21.98
2023-01-04T14:14:44.252Z,21.13
2023-01-04T14:17:48.560Z,21.15
2023-01-04T14:20:23.164Z,21.67
2023-01-04T14:22:52.601Z,19.90
2023-01-04T14:25:31.814Z,24.48
2023-01-04T14:28:18.174Z,23.90
2023-01-04T14:31:04.433Z,22.10
2023-01-04T14:33:41.775Z,21.70
2023-01-04T14:36:29.061Z,21.35
2023-01-04T14:39:09.188Z,21.60
2023-01-04T14:41:57.719Z,22.75
2023-01-04T14:44:28.661Z,20.80
2023-01-04T14:47:00.775Z,20.17
2023-01-04T14:49:31.636Z,18.38
2023-01-04T14:52:01.551Z,17.98
2023-01-04T14:54:31.701Z,19.45
2023-01-04T14:56:59.199Z,18.45
2023-01-04T14:59:27.244Z,18.88
2023-01-04T15:01:56.621Z,19.30
2023-01-04T15:04:24.685Z,20.08
2023-01-04T15:06:55.890Z,20.85
2023-01-04T15:09:23.964Z,20.23
2023-01-04T15:11:51.210Z,20.45
2023-01-04T15:14:19.375Z,32.65
2023-01-04T15:16:47.411Z,29.48
2023-01-04T15:19:17.531Z,30.58
2023-01-04T15:21:44.780Z,27.20
2023-01-04T15:24:12.262Z,27.80
2023-01-04T15:26:40.065Z,26.05
2023-01-04T15:29:08.794Z,25.90
2023-01-04T15:31:39.728Z,24.55
2023-01-04T15:34:10.048Z,24.88
2023-01-04T15:36:41.405Z,24.73
2023-01-04T15:39:13.348Z,41.85
2023-01-04T15:41:59.013Z,29.83
2023-01-04T15:44:26.859Z,31.92
2023-01-04T15:46:54.824Z,31.70
2023-01-04T15:49:22.522Z,32.38
2023-01-04T15:51:49.625Z,33.05
2023-01-04T15:54:21.694Z,28.63
2023-01-04T15:56:49.032Z,27.83
2023-01-04T15:59:16.580Z,28.35
2023-01-04T16:01:46.492Z,30.98
2023-01-04T16:04:16.827Z,29.92
2023-01-04T16:06:44.016Z,35.17
2023-01-04T16:09:11.475Z,33.65
2023-01-04T16:11:58.972Z,36.00
2023-01-04T16:14:26.424Z,39.72
2023-01-04T16:16:54.089Z,36.53
2023-01-04T16:19:21.593Z,43.67
2023-01-04T16:21:48.621Z,39.28
2023-01-04T16:24:44.936Z,37.38
2023-01-04T16:27:05.492Z,35.15
2023-01-04T16:29:32.852Z,29.52
2023-01-04T16:31:59.951Z,25.73
2023-01-04T16:34:30.082Z,19.40
2023-01-04T16:36:57.683Z,15.95
2023-01-04T16:39:57.197Z,12.30
2023-01-04T16:42:12.357Z,9.57
2023-01-04T16:44:39.946Z,6.53
2023-01-04T16:47:08.133Z,6.10
2023-01-04T16:49:35.742Z,4.80
2023-01-04T16:52:03.001Z,3.63
2023-01-04T16:54:30.391Z,2.17
2023-01-04T16:56:59.046Z,2.13
2023-01-04T16:59:29.098Z,2.00
2023-01-04T17:01:58.314Z,2.05
2023-01-04T17:04:26.012Z,2.35
2023-01-04T17:06:55.079Z,2.55
2023-01-04T17:09:22.592Z,2.38
2023-01-04T17:15:00.846Z,2.17
2023-01-04T17:17:35.229Z,2.30
2023-01-04T17:20:06.575Z,2.78
2023-01-04T17:22:35.516Z,2.80
2023-01-04T17:25:05.840Z,2.30
2023-01-04T17:27:34.764Z,2.42
2023-01-04T17:30:04.110Z,2.30
2023-01-04T17:32:31.879Z,2.20
2023-01-04T17:34:59.546Z,1.75
2023-01-04T17:37:27.215Z,1.73
2023-01-04T17:39:55.267Z,1.52
2023-01-04T17:42:23.195Z,1.70
2023-01-04T17:44:51.463Z,1.80
2023-01-04T17:47:19.595Z,1.13
2023-01-04T17:49:47.166Z,1.38
2023-01-04T17:52:21.052Z,1.40
2023-01-04T17:54:51.265Z,1.02
2023-01-04T17:57:18.590Z,1.75
2023-01-04T17:59:46.245Z,1.20
2023-01-04T18:02:16.469Z,1.60
2023-01-04T18:04:44.086Z,1.73
2023-01-04T18:09:41.405Z,2.15
2023-01-04T18:12:09.788Z,1.77
2023-01-04T18:14:37.775Z,1.35
2023-01-04T18:17:06.355Z,1.70
2023-01-04T18:19:34.167Z,1.77
2023-01-04T18:22:02.033Z,1.90
2023-01-04T18:24:36.662Z,1.30
2023-01-04T18:27:23.746Z,1.80
2023-01-04T18:29:54.813Z,1.83
2023-01-04T18:32:27.159Z,1.30
2023-01-04T18:34:55.346Z,1.45
2023-01-04T18:37:24.170Z,1.60
2023-01-04T18:39:56.314Z,1.42
2023-01-04T18:42:26.556Z,1.70
2023-01-04T18:44:54.779Z,1.75
2023-01-04T18:47:27.230Z,1.55
2023-01-04T18:49:55.452Z,1.90
2023-01-04T18:52:25.849Z,2.60
2023-01-04T18:54:56.814Z,2.38
2023-01-04T18:57:24.614Z,2.88
2023-01-04T18:59:53.414Z,3.13
2023-01-04T19:02:22.030Z,2.88
2023-01-04T19:04:53.469Z,2.63
2023-01-04T19:07:21.648Z,2.70
2023-01-04T19:09:50.060Z,4.10
2023-01-04T19:12:17.790Z,3.30
2023-01-04T19:14:50.271Z,3.40
2023-01-04T19:17:24.746Z,4.55
2023-01-04T19:19:53.304Z,2.90
2023-01-04T19:22:21.091Z,3.90
2023-01-04T19:24:49.400Z,6.32
2023-01-04T19:27:16.924Z,74.70
2023-01-04T19:29:46.607Z,38.72
2023-01-04T19:32:20.022Z,31.45
2023-01-04T19:34:48.440Z,19.08
2023-01-04T19:37:18.462Z,10.75
2023-01-04T19:39:47.241Z,4.93
2023-01-04T19:42:15.205Z,2.75
2023-01-04T19:44:45.766Z,2.42
2023-01-04T19:47:16.376Z,1.58
2023-01-04T19:49:46.463Z,1.45
2023-01-04T19:52:14.571Z,1.10
2023-01-04T19:54:45.126Z,1.10
2023-01-04T19:57:15.934Z,0.88
2023-01-04T19:59:46.595Z,0.80
2023-01-04T20:02:14.479Z,0.70
2023-01-04T20:04:46.392Z,0.65
2023-01-04T20:07:14.211Z,0.63
2023-01-04T20:09:43.111Z,0.95
2023-01-04T20:12:11.086Z,0.80
2023-01-04T20:14:39.656Z,0.93
2023-01-04T20:17:08.181Z,1.05
2023-01-04T20:19:36.239Z,1.10
2023-01-04T20:22:04.294Z,1.02
2023-01-04T20:24:35.423Z,0.85
2023-01-04T20:27:03.392Z,0.77
2023-01-04T20:29:31.537Z,1.15
2023-01-04T20:32:01.384Z,0.88
2023-01-04T20:34:30.750Z,0.98
2023-01-04T20:36:59.277Z,1.15
2023-01-04T20:39:27.802Z,0.95
2023-01-04T20:42:29.818Z,1.67
2023-01-04T20:45:01.880Z,1.08
2023-01-04T20:47:33.177Z,0.93
2023-01-04T20:50:01.457Z,0.90
2023-01-04T20:52:29.337Z,1.40
2023-01-04T20:54:58.688Z,1.20
2023-01-04T20:57:26.882Z,1.20
2023-01-04T20:59:54.605Z,1.15
2023-01-04T21:02:22.565Z,1.27
2023-01-04T21:04:50.911Z,1.40
2023-01-04T21:07:18.064Z,1.20
2023-01-04T21:09:48.291Z,0.90
2023-01-04T21:12:18.056Z,1.25
2023-01-04T21:14:47.512Z,0.90
2023-01-04T21:17:15.170Z,1.02
2023-01-04T21:19:43.287Z,1.30
2023-01-04T21:22:11.541Z,1.10
2023-01-04T21:24:39.511Z,1.10
2023-01-04T21:27:07.502Z,1.00
2023-01-04T21:29:35.381Z,1.00
2023-01-04T21:32:02.921Z,1.40
2023-01-04T21:34:31.687Z,1.00
2023-01-04T21:36:59.511Z,0.90
2023-01-04T21:39:27.045Z,1.30
2023-01-04T21:41:54.375Z,1.35
2023-01-04T21:44:22.254Z,1.13
2023-01-04T21:46:49.894Z,1.10
2023-01-04T21:49:17.527Z,1.20
2023-01-04T21:51:44.662Z,0.90
2023-01-04T21:54:14.836Z,1.30
2023-01-04T21:56:41.878Z,0.98
2023-01-04T21:59:09.620Z,1.23
2023-01-04T22:01:37.398Z,1.10
2023-01-04T22:04:05.467Z,0.98
2023-01-04T22:06:34.198Z,1.23
2023-01-04T22:09:03.813Z,0.98
2023-01-04T22:11:31.373Z,1.10
2023-01-04T22:14:01.707Z,1.10
2023-01-04T22:16:29.639Z,1.08
2023-01-04T22:18:57.092Z,1.02
2023-01-04T22:21:24.570Z,1.10
2023-01-04T22:23:52.528Z,0.93
2023-01-04T22:26:22.463Z,0.88
2023-01-04T22:28:52.780Z,1.20
2023-01-04T22:31:22.190Z,0.80
2023-01-04T22:33:50.061Z,0.98
2023-01-04T22:36:22.823Z,0.77
2023-01-04T22:38:54.732Z,0.80
2023-01-04T22:41:30.981Z,0.80
2023-01-04T22:44:05.404Z,0.70
2023-01-04T22:46:36.503Z,0.95
2023-01-04T22:49:04.420Z,0.68
2023-01-04T22:51:32.007Z,1.02
2023-01-04T22:54:01.519Z,0.68
2023-01-04T22:56:31.053Z,0.75
2023-01-04T22:58:58.569Z,0.95
2023-01-04T23:01:31.430Z,1.10
2023-01-04T23:04:00.366Z,0.80
2023-01-04T23:06:29.754Z,0.60
2023-01-04T23:09:09.692Z,0.70
2023-01-04T23:11:37.358Z,0.93
2023-01-04T23:14:08.265Z,0.90
2023-01-04T23:16:35.846Z,0.90
2023-01-04T23:19:05.193Z,1.20
2023-01-04T23:21:35.540Z,0.98
2023-01-04T23:24:03.404Z,0.98
2023-01-04T23:26:32.175Z,1.10
2023-01-04T23:29:01.108Z,0.75
2023-01-04T23:31:30.962Z,0.90
2023-01-04T23:34:05.220Z,0.80
2023-01-04T23:36:35.624Z,0.70
2023-01-04T23:39:07.233Z,0.82
2023-01-04T23:41:47.359Z,0.95
2023-01-04T23:44:25.547Z,0.90
2023-01-04T23:46:55.576Z,0.90
2023-01-04T23:49:24.983Z,1.10
2023-01-04T23:51:52.683Z,1.20
2023-01-04T23:54:21.259Z,1.20
2023-01-04T23:56:48.397Z,0.80
2023-01-04T23:59:15.996Z,0.98
